<?xml version="1.0" encoding="UTF-8" standalone="no" ?><gpx xmlns="http://www.topografix.com/GPX/1/1" xmlns:gpxx="http://www.garmin.com/xmlschemas/GpxExtensions/v3" xmlns:wptx1="http://www.garmin.com/xmlschemas/WaypointExtension/v1" xmlns:gpxtpx="http://www.garmin.com/xmlschemas/TrackPointExtension/v1" creator="GuideVTT.com" version="1.1" xmlns:xsi="http://www.w3.org/2001/XMLSchema-instance" xsi:schemaLocation="http://www.topografix.com/GPX/1/1 http://www.topografix.com/GPX/1/1/gpx.xsd http://www.garmin.com/xmlschemas/GpxExtensions/v3 http://www8.garmin.com/xmlschemas/GpxExtensionsv3.xsd http://www.garmin.com/xmlschemas/WaypointExtension/v1 http://www8.garmin.com/xmlschemas/WaypointExtensionv1.xsd http://www.garmin.com/xmlschemas/TrackPointExtension/v1 http://www.garmin.com/xmlschemas/TrackPointExtensionv1.xsd">
<metadata><link href="http://www.garmin.com"><text>Garmin International</text></link><time>2013-06-22T15:13:50Z</time></metadata>
<trk><name>9od8ra3au_survolbarillette6.gpx</name><extensions><gpxx:TrackExtension><gpxx:DisplayColor>Cyan</gpxx:DisplayColor></gpxx:TrackExtension></extensions><trkseg>
<trkpt lat="46.40091511532655" lon="6.17350888677775"><ele></ele><time>2016-4-23T1:13:34Z</time></trkpt>
<trkpt lat="46.39868879740221" lon="6.165217051909487"><ele></ele><time>2016-4-23T1:13:37Z</time></trkpt>
<trkpt lat="46.39696986822708" lon="6.158794654460849"><ele></ele><time>2016-4-23T1:13:40Z</time></trkpt>
<trkpt lat="46.39589226800555" lon="6.152388567017777"><ele></ele><time>2016-4-23T1:13:43Z</time></trkpt>
<trkpt lat="46.39522199621221" lon="6.147928532885163"><ele></ele><time>2016-4-23T1:13:46Z</time></trkpt>
<trkpt lat="46.39554620668728" lon="6.143871337371651"><ele></ele><time>2016-4-23T1:13:49Z</time></trkpt>
<trkpt lat="46.39745847162064" lon="6.140862852793052"><ele></ele><time>2016-4-23T1:13:52Z</time></trkpt>
<trkpt lat="46.39901458474596" lon="6.139750198339799"><ele></ele><time>2016-4-23T1:13:55Z</time></trkpt>
<trkpt lat="46.40281800647287" lon="6.139457102625561"><ele></ele><time>2016-4-23T1:13:58Z</time></trkpt>
<trkpt lat="46.40588604446459" lon="6.140458954890109"><ele></ele><time>2016-4-23T1:14:1Z</time></trkpt>
<trkpt lat="46.40807502693384" lon="6.142168587671533"><ele></ele><time>2016-4-23T1:14:4Z</time></trkpt>
<trkpt lat="46.41023188329675" lon="6.143949181135127"><ele></ele><time>2016-4-23T1:14:7Z</time></trkpt>
<trkpt lat="46.41157819148624" lon="6.146100349022867"><ele></ele><time>2016-4-23T1:14:10Z</time></trkpt>
<trkpt lat="46.41341722463086" lon="6.148932013615474"><ele></ele><time>2016-4-23T1:14:13Z</time></trkpt>
<trkpt lat="46.41471782363325" lon="6.151842086747481"><ele></ele><time>2016-4-23T1:14:16Z</time></trkpt>
<trkpt lat="46.41581864304635" lon="6.1562860407347"><ele></ele><time>2016-4-23T1:14:19Z</time></trkpt>
<trkpt lat="46.41618864101018" lon="6.159509661513313"><ele></ele><time>2016-4-23T1:14:22Z</time></trkpt>
<trkpt lat="46.41627970608061" lon="6.16373032322882"><ele></ele><time>2016-4-23T1:14:25Z</time></trkpt>
<trkpt lat="46.41607659818286" lon="6.167840624621405"><ele></ele><time>2016-4-23T1:14:28Z</time></trkpt>
<trkpt lat="46.41771191194998" lon="6.171638936207822"><ele></ele><time>2016-4-23T1:14:31Z</time></trkpt>
<trkpt lat="46.42029245654772" lon="6.173000799014328"><ele></ele><time>2016-4-23T1:14:34Z</time></trkpt>
<trkpt lat="46.423586548953" lon="6.173266781270028"><ele></ele><time>2016-4-23T1:14:37Z</time></trkpt>
<trkpt lat="46.42594705906704" lon="6.171318697348511"><ele></ele><time>2016-4-23T1:14:40Z</time></trkpt>
<trkpt lat="46.4275085126871" lon="6.168636434008075"><ele></ele><time>2016-4-23T1:14:43Z</time></trkpt>
<trkpt lat="46.4265620452783" lon="6.165362460315862"><ele></ele><time>2016-4-23T1:14:46Z</time></trkpt>
<trkpt lat="46.42574744226553" lon="6.161867993276468"><ele></ele><time>2016-4-23T1:14:49Z</time></trkpt>
<trkpt lat="46.42494867530983" lon="6.158857131567437"><ele></ele><time>2016-4-23T1:14:52Z</time></trkpt>
<trkpt lat="46.42428661303298" lon="6.155829151135766"><ele></ele><time>2016-4-23T1:14:55Z</time></trkpt>
<trkpt lat="46.42372394177674" lon="6.153503780573599"><ele></ele><time>2016-4-23T1:14:58Z</time></trkpt>
<trkpt lat="46.42374190109828" lon="6.150902024109028"><ele></ele><time>2016-4-23T1:15:1Z</time></trkpt>
<trkpt lat="46.42436139029864" lon="6.149048814158091"><ele></ele><time>2016-4-23T1:15:4Z</time></trkpt>
<trkpt lat="46.42518847425379" lon="6.14743529267237"><ele></ele><time>2016-4-23T1:15:7Z</time></trkpt>
<trkpt lat="46.42616617568857" lon="6.145081409177409"><ele></ele><time>2016-4-23T1:15:10Z</time></trkpt>
<trkpt lat="46.42689512726188" lon="6.142576637929736"><ele></ele><time>2016-4-23T1:15:13Z</time></trkpt>
<trkpt lat="46.42752401611927" lon="6.13994209341437"><ele></ele><time>2016-4-23T1:15:16Z</time></trkpt>
<trkpt lat="46.42735703328525" lon="6.137298159241174"><ele></ele><time>2016-4-23T1:15:19Z</time></trkpt>
<trkpt lat="46.42647237710894" lon="6.134424672333676"><ele></ele><time>2016-4-23T1:15:22Z</time></trkpt>
<trkpt lat="46.42551810610033" lon="6.132451620966588"><ele></ele><time>2016-4-23T1:15:25Z</time></trkpt>
<trkpt lat="46.42515630749823" lon="6.129844177667154"><ele></ele><time>2016-4-23T1:15:28Z</time></trkpt>
<trkpt lat="46.42528591417287" lon="6.128016980924304"><ele></ele><time>2016-4-23T1:15:31Z</time></trkpt>
<trkpt lat="46.42578027831505" lon="6.126690804777026"><ele></ele><time>2016-4-23T1:15:34Z</time></trkpt>
<trkpt lat="46.42716571953748" lon="6.125478341657622"><ele></ele><time>2016-4-23T1:15:37Z</time></trkpt>
<trkpt lat="46.42866931997936" lon="6.12492862843582"><ele></ele><time>2016-4-23T1:15:40Z</time></trkpt>
<trkpt lat="46.43020246690801" lon="6.125375323960849"><ele></ele><time>2016-4-23T1:15:43Z</time></trkpt>
<trkpt lat="46.43135767267637" lon="6.125417665881818"><ele></ele><time>2016-4-23T1:15:46Z</time></trkpt>
<trkpt lat="46.43190957353008" lon="6.126647124971574"><ele></ele><time>2016-4-23T1:15:49Z</time></trkpt>
<trkpt lat="46.431853141295" lon="6.127562416581778"><ele></ele><time>2016-4-23T1:15:52Z</time></trkpt>
<trkpt lat="46.43154506400793" lon="6.128080357528689"><ele></ele><time>2016-4-23T1:15:55Z</time></trkpt>
<trkpt lat="46.43125527082504" lon="6.128393574843233"><ele></ele><time>2016-4-23T1:15:58Z</time></trkpt>
<trkpt lat="46.43113469055733" lon="6.128507357873911"><ele></ele><time>2016-4-23T1:16:1Z</time></trkpt>
<trkpt lat="46.4310641244768" lon="6.128569107668948"><ele></ele><time>2016-4-23T1:16:4Z</time></trkpt>
<trkpt lat="46.43100462370497" lon="6.128628775748426"><ele></ele><time>2016-4-23T1:16:7Z</time></trkpt>
<trkpt lat="46.43095733685495" lon="6.12867410446075"><ele></ele><time>2016-4-23T1:16:10Z</time></trkpt>
<trkpt lat="46.43091657029007" lon="6.128716783844896"><ele></ele><time>2016-4-23T1:16:13Z</time></trkpt>
<trkpt lat="46.43088279249987" lon="6.128753080028336"><ele></ele><time>2016-4-23T1:16:16Z</time></trkpt>
</trkseg></trk></gpx>